createdAt,value
2023-11-29T00:02:05.393Z,3.28
2023-11-29T00:07:08.520Z,2.97
2023-11-29T00:12:11.607Z,3.05
2023-11-29T00:17:14.332Z,2.74
2023-11-29T00:22:17.070Z,2.93
2023-11-29T00:27:19.743Z,2.82
2023-11-29T00:32:23.210Z,2.87
2023-11-29T00:37:25.967Z,2.82
2023-11-29T00:42:28.732Z,2.79
2023-11-29T00:47:31.801Z,2.66
2023-11-29T00:52:34.758Z,2.92
2023-11-29T00:57:37.894Z,2.63
2023-11-29T01:02:40.891Z,2.40
2023-11-29T01:07:43.949Z,2.57
2023-11-29T01:12:46.672Z,2.94
2023-11-29T01:17:49.883Z,2.62
2023-11-29T01:22:52.745Z,2.67
2023-11-29T01:27:55.702Z,2.83
2023-11-29T01:32:58.778Z,3.03
2023-11-29T01:38:01.863Z,2.84
2023-11-29T01:43:05.002Z,3.32
2023-11-29T01:48:08.199Z,3.04
2023-11-29T01:53:13.481Z,2.91
2023-11-29T01:58:18.478Z,2.99
2023-11-29T02:03:22.623Z,3.26
2023-11-29T02:08:26.404Z,2.85
2023-11-29T02:13:29.364Z,2.86
2023-11-29T02:18:32.465Z,3.23
2023-11-29T02:23:46.614Z,3.11
2023-11-29T02:28:49.300Z,3.07
2023-11-29T02:33:52.188Z,2.88
2023-11-29T02:38:55.119Z,2.83
2023-11-29T02:43:58.097Z,2.44
2023-11-29T02:49:00.901Z,2.46
2023-11-29T02:54:04.078Z,2.66
2023-11-29T02:59:07.089Z,2.95
2023-11-29T03:04:10.035Z,3.04
2023-11-29T03:09:12.975Z,2.72
2023-11-29T03:14:16.242Z,2.61
2023-11-29T03:19:19.264Z,2.24
2023-11-29T03:24:22.078Z,2.04
2023-11-29T03:29:25.966Z,2.09
2023-11-29T03:34:29.266Z,2.13
2023-11-29T03:39:32.323Z,2.17
2023-11-29T03:44:36.421Z,2.06
2023-11-29T03:49:39.601Z,2.11
2023-11-29T03:54:42.293Z,2.27
2023-11-29T03:59:45.476Z,2.56
2023-11-29T04:04:48.755Z,2.51
2023-11-29T04:09:58.241Z,2.50
2023-11-29T04:15:06.955Z,2.38
2023-11-29T04:20:09.999Z,2.17
2023-11-29T04:25:13.063Z,2.10
2023-11-29T04:30:16.207Z,2.11
2023-11-29T04:35:19.123Z,2.21
2023-11-29T04:40:22.062Z,1.78
2023-11-29T04:45:25.019Z,2.45
2023-11-29T04:50:28.046Z,2.23
2023-11-29T04:55:31.104Z,2.41
2023-11-29T05:00:33.866Z,2.97
2023-11-29T05:05:37.322Z,3.01
2023-11-29T05:10:40.426Z,3.20
2023-11-29T05:15:49.372Z,3.30
2023-11-29T05:20:52.514Z,3.52
2023-11-29T05:25:55.247Z,3.72
2023-11-29T05:30:59.565Z,3.67
2023-11-29T05:36:02.319Z,3.93
2023-11-29T05:41:06.647Z,3.60
2023-11-29T05:46:09.704Z,3.93
2023-11-29T05:51:14.450Z,3.98
2023-11-29T05:56:17.427Z,3.73
2023-11-29T06:01:21.449Z,4.12
2023-11-29T06:06:24.345Z,3.84
2023-11-29T06:11:30.572Z,3.91
2023-11-29T06:16:35.106Z,3.96
2023-11-29T06:21:40.638Z,4.17
2023-11-29T06:26:46.496Z,4.15
2023-11-29T06:31:49.705Z,4.27
2023-11-29T06:36:52.896Z,3.84
2023-11-29T06:41:55.727Z,3.94
2023-11-29T06:47:01.655Z,3.95
2023-11-29T06:52:04.964Z,3.56
2023-11-29T06:57:07.757Z,3.62
2023-11-29T07:02:10.783Z,3.26
2023-11-29T07:07:13.871Z,3.39
2023-11-29T07:12:24.048Z,3.54
2023-11-29T07:17:27.680Z,3.35
2023-11-29T07:22:30.498Z,3.79
2023-11-29T07:27:34.266Z,4.00
2023-11-29T07:32:38.003Z,4.00
2023-11-29T07:37:41.035Z,4.22
2023-11-29T07:42:44.253Z,4.24
2023-11-29T07:47:47.185Z,4.45
2023-11-29T07:52:50.548Z,4.42
2023-11-29T07:57:53.725Z,4.66
2023-11-29T08:02:56.718Z,4.68
2023-11-29T08:07:59.785Z,4.92
2023-11-29T08:13:02.671Z,5.14
2023-11-29T08:18:05.974Z,4.93
2023-11-29T08:23:08.792Z,4.99
2023-11-29T08:28:11.933Z,5.33
2023-11-29T08:33:16.211Z,5.31
2023-11-29T08:38:21.659Z,5.05
2023-11-29T08:43:24.695Z,5.28
2023-11-29T08:48:27.741Z,5.28
2023-11-29T08:53:37.732Z,5.53
2023-11-29T08:58:44.016Z,5.62
2023-11-29T09:03:47.277Z,5.97
2023-11-29T09:08:51.305Z,6.09
2023-11-29T09:13:54.159Z,6.07
2023-11-29T09:18:57.221Z,5.62
2023-11-29T09:24:00.095Z,5.66
2023-11-29T09:29:03.634Z,5.91
2023-11-29T09:34:06.928Z,5.84
2023-11-29T09:39:14.441Z,5.84
2023-11-29T09:44:17.708Z,5.88
2023-11-29T09:49:21.809Z,5.97
2023-11-29T09:54:26.134Z,6.07
2023-11-29T09:59:29.078Z,5.96
2023-11-29T10:04:36.544Z,5.85
2023-11-29T10:09:40.412Z,5.85
2023-11-29T10:14:43.412Z,5.85
2023-11-29T10:19:47.905Z,5.75
2023-11-29T10:24:50.891Z,5.89
2023-11-29T10:29:54.369Z,5.66
2023-11-29T10:34:59.226Z,5.63
2023-11-29T10:40:04.047Z,5.91
2023-11-29T10:45:10.974Z,6.13
2023-11-29T10:50:16.670Z,6.12
2023-11-29T10:55:22.698Z,6.19
2023-11-29T11:00:30.138Z,6.15
2023-11-29T11:05:33.429Z,6.39
2023-11-29T11:10:37.096Z,6.24
2023-11-29T11:15:41.984Z,6.09
2023-11-29T11:20:50.596Z,6.57
2023-11-29T11:25:57.328Z,6.48
2023-11-29T11:31:03.923Z,6.69
2023-11-29T11:36:07.306Z,6.56
2023-11-29T11:41:10.228Z,6.74
2023-11-29T11:46:13.676Z,6.70
2023-11-29T11:51:21.822Z,6.51
2023-11-29T11:56:24.802Z,6.37
2023-11-29T12:01:30.638Z,6.72
2023-11-29T12:06:34.003Z,6.65
2023-11-29T12:11:38.453Z,6.67
2023-11-29T12:16:41.528Z,6.83
2023-11-29T12:21:44.683Z,6.74
2023-11-29T12:26:47.989Z,6.77
2023-11-29T12:31:51.086Z,6.76
2023-11-29T12:36:58.875Z,6.77
2023-11-29T12:42:02.248Z,6.50
2023-11-29T12:47:06.390Z,6.62
2023-11-29T12:52:09.396Z,6.71
2023-11-29T12:57:12.661Z,6.50
2023-11-29T13:02:15.799Z,6.42
2023-11-29T13:07:19.932Z,6.44
2023-11-29T13:12:22.865Z,6.38
2023-11-29T13:17:26.040Z,6.40
2023-11-29T13:22:29.026Z,6.50
2023-11-29T13:27:31.900Z,6.58
2023-11-29T13:32:34.762Z,6.46
2023-11-29T13:37:37.781Z,6.59
2023-11-29T13:42:40.950Z,6.66
2023-11-29T13:47:44.090Z,6.65
2023-11-29T13:52:47.305Z,6.83
2023-11-29T13:57:50.288Z,6.77
2023-11-29T14:02:53.768Z,6.46
2023-11-29T14:07:56.819Z,6.83
2023-11-29T14:12:59.489Z,6.92
2023-11-29T14:18:03.993Z,6.41
2023-11-29T14:23:06.726Z,6.67
2023-11-29T14:28:10.106Z,6.56
2023-11-29T14:33:13.421Z,6.66
2023-11-29T14:38:16.618Z,6.62
2023-11-29T14:43:19.746Z,6.55
2023-11-29T14:48:22.878Z,6.54
2023-11-29T14:53:25.919Z,6.45
2023-11-29T14:58:28.833Z,6.35
2023-11-29T15:03:31.727Z,6.33
2023-11-29T15:08:34.794Z,6.46
2023-11-29T15:13:42.146Z,6.43
2023-11-29T15:18:45.575Z,6.18
2023-11-29T15:23:48.483Z,6.28
2023-11-29T15:28:51.451Z,6.38
2023-11-29T15:33:54.556Z,6.42
2023-11-29T15:38:58.568Z,6.37
2023-11-29T15:44:01.681Z,6.28
2023-11-29T15:49:06.372Z,6.23
2023-11-29T15:54:09.175Z,6.37
2023-11-29T15:59:12.156Z,6.25
2023-11-29T16:04:14.928Z,6.35
2023-11-29T16:09:18.110Z,6.40
2023-11-29T16:14:21.433Z,6.09
2023-11-29T16:19:24.454Z,6.29
2023-11-29T16:24:27.371Z,6.05
2023-11-29T16:29:30.510Z,6.08
2023-11-29T16:34:33.308Z,5.93
2023-11-29T16:39:36.377Z,6.15
2023-11-29T16:44:39.849Z,6.17
2023-11-29T16:49:42.644Z,6.14
2023-11-29T16:54:45.882Z,6.30
2023-11-29T16:59:48.879Z,6.07
2023-11-29T17:04:52.172Z,6.21
2023-11-29T17:09:58.744Z,6.24
2023-11-29T17:15:01.600Z,6.33
2023-11-29T17:20:05.464Z,6.13
2023-11-29T17:25:09.416Z,6.37
2023-11-29T17:30:13.716Z,6.21
2023-11-29T17:35:17.580Z,6.36
2023-11-29T17:40:20.355Z,6.26
2023-11-29T17:45:24.341Z,6.31
2023-11-29T17:50:27.276Z,6.42
2023-11-29T17:55:30.291Z,6.26
2023-11-29T18:00:33.301Z,6.13
2023-11-29T18:05:37.056Z,6.14
2023-11-29T18:10:51.752Z,5.97
2023-11-29T18:15:55.650Z,5.77
2023-11-29T18:20:58.521Z,5.78
2023-11-29T18:26:04.981Z,5.76
2023-11-29T18:31:08.363Z,5.68
2023-11-29T18:36:11.579Z,5.50
2023-11-29T18:41:14.652Z,5.63
2023-11-29T18:46:17.688Z,5.70
2023-11-29T18:51:20.732Z,5.68
2023-11-29T18:56:23.721Z,5.78
2023-11-29T19:01:26.840Z,5.62
2023-11-29T19:06:29.602Z,5.51
2023-11-29T19:11:32.416Z,5.56
2023-11-29T19:16:35.800Z,5.62
2023-11-29T19:21:38.472Z,5.69
2023-11-29T19:26:41.624Z,5.73
2023-11-29T19:31:48.052Z,5.78
2023-11-29T19:36:51.391Z,5.84
2023-11-29T19:41:54.493Z,5.69
2023-11-29T19:47:07.189Z,5.76
2023-11-29T19:52:16.955Z,5.71
2023-11-29T19:57:20.611Z,5.69
2023-11-29T20:02:24.009Z,5.71
2023-11-29T20:07:27.409Z,5.74
2023-11-29T20:12:30.091Z,5.53
2023-11-29T20:17:33.391Z,5.67
2023-11-29T20:22:36.792Z,5.62
2023-11-29T20:27:43.054Z,5.51
2023-11-29T20:32:45.768Z,5.59
2023-11-29T20:37:48.618Z,5.50
2023-11-29T20:42:52.455Z,5.53
2023-11-29T20:47:55.477Z,5.47
2023-11-29T20:53:05.715Z,5.46
2023-11-29T20:58:18.550Z,5.52
2023-11-29T21:03:21.983Z,5.42
2023-11-29T21:08:25.122Z,5.39
2023-11-29T21:13:28.295Z,5.35
2023-11-29T21:18:31.498Z,5.26
2023-11-29T21:23:34.420Z,5.45
2023-11-29T21:28:39.308Z,5.19
2023-11-29T21:33:42.303Z,5.20
2023-11-29T21:38:45.439Z,5.40
2023-11-29T21:43:48.394Z,5.44
2023-11-29T21:48:51.372Z,5.40
2023-11-29T21:53:54.378Z,5.44
2023-11-29T21:58:57.107Z,5.35
2023-11-29T22:04:00.253Z,5.29
2023-11-29T22:09:03.115Z,5.40
2023-11-29T22:14:06.025Z,5.07
2023-11-29T22:19:10.330Z,5.40
2023-11-29T22:24:13.067Z,5.41
2023-11-29T22:29:16.190Z,5.17
2023-11-29T22:34:19.258Z,5.27
2023-11-29T22:39:22.336Z,5.34
2023-11-29T22:44:25.668Z,5.16
2023-11-29T22:49:28.899Z,5.17
2023-11-29T22:54:32.206Z,5.35
2023-11-29T22:59:35.028Z,5.24
2023-11-29T23:04:38.093Z,5.36
2023-11-29T23:09:41.914Z,5.41
2023-11-29T23:14:45.021Z,5.21
2023-11-29T23:19:48.921Z,5.41
2023-11-29T23:24:51.984Z,5.52
2023-11-29T23:29:54.783Z,5.36
2023-11-29T23:34:57.908Z,5.53
2023-11-29T23:40:00.728Z,5.53
2023-11-29T23:45:04.357Z,5.38
2023-11-29T23:50:09.422Z,5.51
2023-11-29T23:55:12.304Z,5.60
